Pittsburg, NH

3:49 PM EDT on July 23, 2016 (GMT -0400)
Hill Top View | | Change Station

Elev 1886 ft 45.06 °N, 71.33 °W | Updated 9 seconds ago

Heavy Rain
Heavy Rain Mist
62.1 °F
Feels Like 62.1 °F
N
5.6
Wind Variable Wind from West
Gusts 7.4 mph

Today
High -- | Low -- °F
--% Chance of Precip.
Yesterday
High -- | Low -- °F
Precip. -- in
Pressure 29.84 in
Visibility 4.0 miles
Clouds Scattered Clouds 6000 ft
Overcast 8000 ft
Dew Point 62 °F
Humidity 98%
Rainfall 0.30 in
Snow Depth Not available.
5:21 AM 8:21 PM
Waning Gibbous, 83% visible
SPECI KBML 231947Z AUTO 14003KT 4SM VCTS +RA BR SCT060 OVC080 18/16 A2984 RMK AO2 LTG DSNT ALQDS TSE37 P0034
Pressure 29.84 in
Visibility 4.0 miles
Clouds Scattered Clouds 6000 ft
Overcast 8000 ft
Dew Point 62 °F
Humidity 98%
Rainfall 0.30 in
Snow Depth Not available.
5:21 AM 8:21 PM
Waning Gibbous, 83% visible
SPECI KBML 231947Z AUTO 14003KT 4SM VCTS +RA BR SCT060 OVC080 18/16 A2984 RMK AO2 LTG DSNT ALQDS TSE37 P0034

10-Day Weather Forecast

Almanac

Astronomy

Jul. 23, 2016 Rise Set
Actual Time
Civil Twilight
Nautical Twilight
Astronomical Twilight
Moon
Length of Visible Light
Length of Day
Tomorrow will be .
, % of the Moon is Illuminated

Today's Extremes

State Highs State Lows

Community

WunderPhotos

Upload Photos

1,926,909 photos uploaded!

WunderBlog® & News

Nearby

Air Quality

  Air Quality AQ Index Pollutant
Not available.

Snow Depth

Station Depth Elevation

Earthquake Activity

City Distance Mag. Time & Date
Minimum magnitude displayed is 2.5.

Coastal Water Temperatures

Place Temperature

Stations

Nearby Weather Stations

Station Location Temp. Windchill Dew Point Humidity Wind Precip. Elev Updated Type
                   

Watches & Warnings

There are currently no watches in effect.